CAL5304 RJGG-CYYZ
Flight info
| Callsign | CAL5304 |
|---|---|
| Flight time | N/A |
| Altitude | 35000 |
| Route | CBE V17 XAC Y233 UTIBO Y803 POROT Y809 AVBET OTR11 LEPKI 40N160E 44N170E/N0493F310 46N180E 47N170W 48N160W 49N150W 50N140W/N0480F330 51N130W 51N120W 5030N11000W 49N100W/N0481F350 DCT KP12K DCT SSM DCT TUDAN BOXUM7 |
| Aircraft | B77L/H-SDE1E2E3FGHIJ1J2J3J4J5M1P2RWY/LB1D1 |
Departure
| Time | N/A |
|---|---|
| Airport | Chubu Centrair International Airport (RJGG) |
Arrival
| Time | 2026-05-06 13:12 |
|---|---|
| Airport | Toronto Pearson International Airport (CYYZ) |
| Time | Latitude | Longitude | Altitude | Speed | Heading |
|---|---|---|---|---|---|
| 2026-05-06 12:40 | 45.09103 | -81.59294 | 34954 ft | 389 kts | 218° |
| 2026-05-06 12:40 | 45.06979 | -81.61595 | 34929 ft | 382 kts | 228° |
| 2026-05-06 12:40 | 45.05297 | -81.64453 | 34955 ft | 377 kts | 239° |
| 2026-05-06 12:40 | 45.04127 | -81.67745 | 34960 ft | 376 kts | 250° |
| 2026-05-06 12:41 | 45.03261 | -81.75024 | 34972 ft | 380 kts | 267° |
| 2026-05-06 12:41 | 45.04100 | -81.82461 | 34970 ft | 389 kts | 281° |
| 2026-05-06 12:42 | 45.06407 | -81.89478 | 34960 ft | 407 kts | 302° |
| 2026-05-06 12:42 | 45.08586 | -81.92172 | 34964 ft | 429 kts | 321° |
| 2026-05-06 12:42 | 45.11408 | -81.93849 | 34994 ft | 455 kts | 337° |
| 2026-05-06 12:43 | 45.14631 | -81.94467 | 34979 ft | 483 kts | 352° |
| 2026-05-06 12:43 | 45.18053 | -81.93964 | 34971 ft | 507 kts | 6° |
| 2026-05-06 12:43 | 45.21444 | -81.92280 | 34972 ft | 528 kts | 21° |
| 2026-05-06 12:43 | 45.24567 | -81.89399 | 34965 ft | 542 kts | 37° |
| 2026-05-06 12:44 | 45.27157 | -81.85477 | 34954 ft | 548 kts | 53° |
| 2026-05-06 12:44 | 45.29042 | -81.80774 | 34995 ft | 550 kts | 68° |
| 2026-05-06 12:44 | 45.30111 | -81.75582 | 34952 ft | 548 kts | 84° |
| 2026-05-06 12:44 | 45.30236 | -81.70224 | 34952 ft | 539 kts | 102° |
| 2026-05-06 12:45 | 45.29312 | -81.65171 | 34948 ft | 522 kts | 122° |
| 2026-05-06 12:45 | 45.27414 | -81.60928 | 34953 ft | 500 kts | 141° |
| 2026-05-06 12:45 | 45.22289 | -81.54758 | 34827 ft | 481 kts | 148° |
| 2026-05-06 12:46 | 45.19783 | -81.51607 | 34385 ft | 482 kts | 146° |
| 2026-05-06 12:46 | 45.17335 | -81.48396 | 33941 ft | 478 kts | 146° |
| 2026-05-06 12:46 | 45.14927 | -81.45181 | 33421 ft | 473 kts | 145° |
| 2026-05-06 12:46 | 45.12548 | -81.41998 | 32954 ft | 468 kts | 146° |
| 2026-05-06 12:47 | 45.10190 | -81.38855 | 32516 ft | 462 kts | 146° |
| 2026-05-06 12:47 | 45.07858 | -81.35767 | 32070 ft | 457 kts | 146° |
| 2026-05-06 12:47 | 45.05529 | -81.32746 | 31639 ft | 444 kts | 151° |
| 2026-05-06 12:47 | 45.03005 | -81.30485 | 31302 ft | 420 kts | 163° |
| 2026-05-06 12:48 | 45.00396 | -81.28724 | 30916 ft | 413 kts | 163° |
| 2026-05-06 12:48 | 44.97843 | -81.26841 | 30519 ft | 415 kts | 159° |
| 2026-05-06 12:48 | 44.96217 | -81.25421 | 30251 ft | 417 kts | 155° |
| 2026-05-06 12:48 | 44.95449 | -81.24681 | 30124 ft | 419 kts | 154° |
| 2026-05-06 12:49 | 44.92337 | -81.21254 | 29529 ft | 432 kts | 148° |
| 2026-05-06 12:49 | 44.90056 | -81.18397 | 29065 ft | 444 kts | 145° |
| 2026-05-06 12:49 | 44.88562 | -81.16416 | 28760 ft | 446 kts | 144° |
| 2026-05-06 12:49 | 44.86342 | -81.13368 | 28290 ft | 444 kts | 143° |
| 2026-05-06 12:50 | 44.83459 | -81.09331 | 27681 ft | 438 kts | 143° |
| 2026-05-06 12:50 | 44.81311 | -81.06318 | 27249 ft | 434 kts | 143° |
| 2026-05-06 12:50 | 44.79178 | -81.03342 | 26813 ft | 430 kts | 143° |
| 2026-05-06 12:50 | 44.77742 | -81.01351 | 26521 ft | 428 kts | 144° |
| 2026-05-06 12:51 | 44.75627 | -80.98431 | 26098 ft | 424 kts | 144° |
| 2026-05-06 12:51 | 44.72845 | -80.94608 | 25543 ft | 421 kts | 144° |
| 2026-05-06 12:51 | 44.71433 | -80.92672 | 25270 ft | 419 kts | 144° |
| 2026-05-06 12:51 | 44.68676 | -80.88900 | 24686 ft | 416 kts | 144° |
| 2026-05-06 12:52 | 44.67278 | -80.86989 | 24413 ft | 414 kts | 144° |
| 2026-05-06 12:52 | 44.65221 | -80.84178 | 24015 ft | 412 kts | 144° |
| 2026-05-06 12:52 | 44.63169 | -80.81379 | 23619 ft | 411 kts | 144° |
| 2026-05-06 12:52 | 44.61123 | -80.78589 | 23121 ft | 409 kts | 144° |
| 2026-05-06 12:53 | 44.59089 | -80.75818 | 22689 ft | 407 kts | 144° |
| 2026-05-06 12:53 | 44.57065 | -80.73062 | 22270 ft | 404 kts | 144° |
| 2026-05-06 12:53 | 44.55056 | -80.70330 | 21858 ft | 401 kts | 144° |
| 2026-05-06 12:53 | 44.53086 | -80.67652 | 21464 ft | 398 kts | 144° |
| 2026-05-06 12:54 | 44.51102 | -80.64959 | 21059 ft | 396 kts | 144° |
| 2026-05-06 12:54 | 44.49130 | -80.62285 | 20660 ft | 393 kts | 144° |
| 2026-05-06 12:54 | 44.47172 | -80.59634 | 20265 ft | 391 kts | 144° |
| 2026-05-06 12:54 | 44.45224 | -80.56999 | 19864 ft | 388 kts | 144° |
| 2026-05-06 12:55 | 44.43288 | -80.54383 | 19461 ft | 385 kts | 144° |
| 2026-05-06 12:55 | 44.41366 | -80.51787 | 19065 ft | 383 kts | 144° |
| 2026-05-06 12:55 | 44.39455 | -80.49209 | 18674 ft | 381 kts | 143° |
| 2026-05-06 12:55 | 44.37551 | -80.46644 | 18285 ft | 379 kts | 143° |
| 2026-05-06 12:56 | 44.35659 | -80.44094 | 17847 ft | 377 kts | 143° |
| 2026-05-06 12:56 | 44.33777 | -80.41562 | 17415 ft | 374 kts | 143° |
| 2026-05-06 12:56 | 44.31908 | -80.39050 | 17002 ft | 371 kts | 143° |
| 2026-05-06 12:56 | 44.30054 | -80.36559 | 16614 ft | 368 kts | 143° |
| 2026-05-06 12:57 | 44.28219 | -80.34096 | 16228 ft | 365 kts | 143° |
| 2026-05-06 12:57 | 44.26403 | -80.31660 | 15911 ft | 359 kts | 144° |
| 2026-05-06 12:57 | 44.24609 | -80.29255 | 15567 ft | 355 kts | 144° |
| 2026-05-06 12:57 | 44.22837 | -80.26886 | 15201 ft | 352 kts | 144° |
| 2026-05-06 12:58 | 44.21077 | -80.24533 | 14831 ft | 349 kts | 144° |
| 2026-05-06 12:58 | 44.19333 | -80.22204 | 14436 ft | 346 kts | 144° |
| 2026-05-06 12:58 | 44.17600 | -80.19895 | 14080 ft | 343 kts | 144° |
| 2026-05-06 12:58 | 44.15855 | -80.17659 | 13712 ft | 339 kts | 146° |
| 2026-05-06 12:59 | 44.14107 | -80.15482 | 13315 ft | 336 kts | 145° |
| 2026-05-06 12:59 | 44.12373 | -80.13329 | 12939 ft | 333 kts | 145° |
| 2026-05-06 12:59 | 44.10656 | -80.11192 | 12571 ft | 329 kts | 144° |
| 2026-05-06 12:59 | 44.08957 | -80.09073 | 12221 ft | 328 kts | 144° |
| 2026-05-06 13:00 | 44.07257 | -80.06954 | 11885 ft | 329 kts | 144° |
| 2026-05-06 13:00 | 44.05598 | -80.04878 | 11775 ft | 325 kts | 144° |
| 2026-05-06 13:00 | 44.03937 | -80.02803 | 11619 ft | 317 kts | 144° |
| 2026-05-06 13:00 | 44.02325 | -80.00788 | 11478 ft | 306 kts | 144° |
| 2026-05-06 13:01 | 44.00746 | -79.98924 | 11194 ft | 299 kts | 148° |
| 2026-05-06 13:01 | 43.99303 | -79.97409 | 10937 ft | 294 kts | 149° |
| 2026-05-06 13:01 | 43.97666 | -79.95739 | 10604 ft | 290 kts | 149° |
| 2026-05-06 13:01 | 43.96053 | -79.94090 | 10310 ft | 286 kts | 149° |
| 2026-05-06 13:02 | 43.94450 | -79.92439 | 10160 ft | 280 kts | 149° |
| 2026-05-06 13:02 | 43.92899 | -79.90838 | 10027 ft | 278 kts | 149° |
| 2026-05-06 13:02 | 43.91365 | -79.89251 | 9747 ft | 280 kts | 148° |
| 2026-05-06 13:02 | 43.89798 | -79.87626 | 9312 ft | 281 kts | 148° |
| 2026-05-06 13:03 | 43.88232 | -79.85999 | 8822 ft | 282 kts | 147° |
| 2026-05-06 13:03 | 43.86658 | -79.84364 | 8347 ft | 283 kts | 147° |
| 2026-05-06 13:03 | 43.85081 | -79.82728 | 7893 ft | 284 kts | 147° |
| 2026-05-06 13:03 | 43.83503 | -79.81090 | 7506 ft | 282 kts | 146° |
| 2026-05-06 13:04 | 43.81944 | -79.79471 | 7159 ft | 279 kts | 146° |
| 2026-05-06 13:04 | 43.80397 | -79.77868 | 6789 ft | 277 kts | 146° |
| 2026-05-06 13:04 | 43.78850 | -79.76269 | 6362 ft | 278 kts | 145° |
| 2026-05-06 13:04 | 43.77291 | -79.74710 | 5912 ft | 273 kts | 152° |
| 2026-05-06 13:05 | 43.75506 | -79.73970 | 5326 ft | 270 kts | 182° |
| 2026-05-06 13:05 | 43.73712 | -79.74561 | 4938 ft | 264 kts | 208° |
| 2026-05-06 13:05 | 43.72243 | -79.76002 | 4601 ft | 256 kts | 226° |
| 2026-05-06 13:05 | 43.71045 | -79.77754 | 4398 ft | 245 kts | 227° |
| 2026-05-06 13:06 | 43.69898 | -79.79436 | 4177 ft | 236 kts | 227° |
| 2026-05-06 13:06 | 43.68785 | -79.81064 | 3913 ft | 230 kts | 227° |
| 2026-05-06 13:06 | 43.67689 | -79.82659 | 3591 ft | 228 kts | 227° |
| 2026-05-06 13:06 | 43.66609 | -79.84216 | 3350 ft | 219 kts | 223° |
| 2026-05-06 13:07 | 43.65318 | -79.85192 | 3042 ft | 209 kts | 187° |
| 2026-05-06 13:07 | 43.63965 | -79.84975 | 3042 ft | 193 kts | 163° |
| 2026-05-06 13:07 | 43.62644 | -79.84296 | 3073 ft | 211 kts | 160° |
| 2026-05-06 13:07 | 43.61273 | -79.83556 | 3022 ft | 215 kts | 160° |
| 2026-05-06 13:08 | 43.59947 | -79.82690 | 2989 ft | 209 kts | 142° |
| 2026-05-06 13:08 | 43.59161 | -79.81071 | 2982 ft | 203 kts | 103° |
| 2026-05-06 13:08 | 43.59279 | -79.79200 | 2995 ft | 196 kts | 65° |
| 2026-05-06 13:08 | 43.60010 | -79.77559 | 2849 ft | 209 kts | 54° |
| 2026-05-06 13:09 | 43.60870 | -79.75981 | 2548 ft | 201 kts | 51° |
| 2026-05-06 13:09 | 43.61765 | -79.74593 | 2259 ft | 186 kts | 47° |
| 2026-05-06 13:09 | 43.62617 | -79.73368 | 2038 ft | 170 kts | 47° |
| 2026-05-06 13:09 | 43.63432 | -79.72189 | 1799 ft | 166 kts | 48° |
| 2026-05-06 13:10 | 43.64201 | -79.71077 | 1560 ft | 154 kts | 49° |
| 2026-05-06 13:10 | 43.64924 | -79.70026 | 1348 ft | 148 kts | 49° |
| 2026-05-06 13:10 | 43.65625 | -79.68998 | 1166 ft | 148 kts | 48° |
| 2026-05-06 13:10 | 43.66349 | -79.67973 | 992 ft | 150 kts | 49° |
| 2026-05-06 13:11 | 43.67072 | -79.66926 | 745 ft | 150 kts | 47° |
| 2026-05-06 13:11 | 43.67775 | -79.65896 | 583 ft | 143 kts | 49° |
| 2026-05-06 13:11 | 43.68380 | -79.65007 | 578 ft | 105 kts | 46° |
| 2026-05-06 13:11 | 43.68756 | -79.64462 | 571 ft | 52 kts | 46° |
| 2026-05-06 13:12 | 43.68962 | -79.64162 | 579 ft | 42 kts | 46° |
| 2026-05-06 13:12 | 43.69111 | -79.63949 | 578 ft | 15 kts | 46° |
| 2026-05-06 13:12 | 43.69168 | -79.63865 | 575 ft | 8 kts | 48° |
| 2026-05-06 13:12 | 43.69169 | -79.63790 | 570 ft | 9 kts | 125° |
| 2026-05-06 13:13 | 43.69124 | -79.63736 | 576 ft | 9 kts | 139° |
| 2026-05-06 13:13 | 43.69082 | -79.63679 | 578 ft | 8 kts | 135° |
| 2026-05-06 13:13 | 43.69032 | -79.63659 | 576 ft | 8 kts | 202° |
| 2026-05-06 13:13 | 43.68993 | -79.63715 | 578 ft | 8 kts | 227° |
| 2026-05-06 13:14 | 43.68954 | -79.63771 | 581 ft | 8 kts | 226° |
| 2026-05-06 13:14 | 43.68914 | -79.63828 | 576 ft | 9 kts | 226° |
| 2026-05-06 13:14 | 43.68866 | -79.63897 | 581 ft | 12 kts | 226° |
| 2026-05-06 13:14 | 43.68818 | -79.63966 | 581 ft | 8 kts | 225° |
| 2026-05-06 13:15 | 43.68765 | -79.63963 | 576 ft | 9 kts | 147° |
| 2026-05-06 13:15 | 43.68720 | -79.63904 | 580 ft | 9 kts | 136° |
| 2026-05-06 13:15 | 43.68674 | -79.63844 | 575 ft | 9 kts | 136° |
| 2026-05-06 13:15 | 43.68628 | -79.63784 | 580 ft | 9 kts | 136° |
| 2026-05-06 13:16 | 43.68578 | -79.63719 | 578 ft | 11 kts | 136° |
| 2026-05-06 13:16 | 43.68509 | -79.63630 | 578 ft | 16 kts | 137° |
| 2026-05-06 13:16 | 43.68416 | -79.63508 | 576 ft | 19 kts | 136° |
| 2026-05-06 13:16 | 43.68318 | -79.63381 | 576 ft | 19 kts | 136° |
| 2026-05-06 13:17 | 43.68220 | -79.63252 | 572 ft | 19 kts | 136° |
| 2026-05-06 13:17 | 43.68122 | -79.63124 | 578 ft | 19 kts | 137° |
| 2026-05-06 13:17 | 43.68049 | -79.63030 | 575 ft | 10 kts | 137° |
| 2026-05-06 13:17 | 43.68000 | -79.62966 | 575 ft | 10 kts | 138° |
| 2026-05-06 13:18 | 43.67941 | -79.62984 | 574 ft | 10 kts | 229° |
| 2026-05-06 13:18 | 43.67894 | -79.63054 | 578 ft | 10 kts | 225° |
| 2026-05-06 13:18 | 43.67854 | -79.63115 | 579 ft | 8 kts | 242° |
| 2026-05-06 13:18 | 43.67882 | -79.63172 | 576 ft | 7 kts | 319° |
| 2026-05-06 13:19 | 43.67903 | -79.63197 | 577 ft | 3 kts | 318° |
| 2026-05-06 13:19 | 43.67905 | -79.63200 | 572 ft | 0 kts | 317° |